createdAt,value
2023-03-21T00:00:47.704Z,22.2239
2023-03-21T00:01:49.160Z,22.2237
2023-03-21T00:02:50.663Z,22.2276
2023-03-21T00:03:52.096Z,22.2251
2023-03-21T00:04:55.094Z,22.2220
2023-03-21T00:05:54.943Z,22.2224
2023-03-21T00:06:56.330Z,22.2206
2023-03-21T00:07:57.793Z,22.2233
2023-03-21T00:08:59.211Z,22.2163
2023-03-21T00:10:12.385Z,22.2163
2023-03-21T00:11:02.098Z,22.2227
2023-03-21T00:12:03.521Z,22.2138
2023-03-21T00:13:04.962Z,22.2070
2023-03-21T00:14:06.403Z,22.2126
2023-03-21T00:15:07.835Z,22.2163
2023-03-21T00:16:20.469Z,22.2237
2023-03-21T00:17:10.710Z,22.2268
2023-03-21T00:18:12.160Z,22.2222
2023-03-21T00:19:13.584Z,22.2218
2023-03-21T00:20:15.092Z,22.2288
2023-03-21T00:21:40.687Z,22.2239
2023-03-21T00:22:17.905Z,22.2126
2023-03-21T00:23:19.337Z,22.2190
2023-03-21T00:24:20.788Z,22.2107
2023-03-21T00:25:22.222Z,22.2081
2023-03-21T00:26:23.673Z,22.2093
2023-03-21T00:27:56.927Z,22.2054
2023-03-21T00:28:26.549Z,22.2155
2023-03-21T00:29:27.988Z,22.2122
2023-03-21T00:30:29.432Z,22.2134
2023-03-21T00:31:30.863Z,22.2185
2023-03-21T00:32:35.593Z,22.2200
2023-03-21T00:33:33.754Z,22.2107
2023-03-21T00:34:43.205Z,22.2151
2023-03-21T00:36:01.806Z,22.2196
2023-03-21T00:36:38.256Z,22.2229
2023-03-21T00:37:39.605Z,22.2165
2023-03-21T00:38:41.041Z,22.2046
2023-03-21T00:39:42.483Z,22.2136
2023-03-21T00:40:49.169Z,22.2128
2023-03-21T00:41:45.403Z,22.2091
2023-03-21T00:42:46.796Z,22.2007
2023-03-21T00:43:48.216Z,22.2033
2023-03-21T00:44:49.671Z,22.1923
2023-03-21T00:45:51.147Z,22.2027
2023-03-21T00:47:06.193Z,22.2060
2023-03-21T00:47:54.138Z,22.2054
2023-03-21T00:48:55.496Z,22.2040
2023-03-21T00:49:56.840Z,22.1949
2023-03-21T00:50:58.314Z,22.1875
2023-03-21T00:52:14.790Z,22.1787
2023-03-21T00:53:01.164Z,22.1851
2023-03-21T00:54:02.594Z,22.1980
2023-03-21T00:55:04.047Z,22.1929
2023-03-21T00:56:05.485Z,22.1863
2023-03-21T00:57:06.919Z,22.1916
2023-03-21T00:58:08.393Z,22.1976
2023-03-21T00:59:09.805Z,22.1923
2023-03-21T01:00:11.229Z,22.1832
2023-03-21T01:01:12.704Z,22.1927
2023-03-21T01:02:14.159Z,22.1857
2023-03-21T01:03:24.506Z,22.1916
2023-03-21T01:04:17.166Z,22.1906
2023-03-21T01:05:18.442Z,22.1836
2023-03-21T01:06:19.866Z,22.1822
2023-03-21T01:07:21.318Z,22.1920
2023-03-21T01:08:29.411Z,22.1943
2023-03-21T01:09:24.214Z,22.1957
2023-03-21T01:10:25.632Z,22.1842
2023-03-21T01:11:27.084Z,22.1826
2023-03-21T01:12:28.525Z,22.1824
2023-03-21T01:13:29.956Z,22.1953
2023-03-21T01:14:31.401Z,22.1902
2023-03-21T01:15:32.834Z,22.1867
2023-03-21T01:16:34.379Z,22.1912
2023-03-21T01:17:35.731Z,22.1962
2023-03-21T01:18:37.142Z,22.2091
2023-03-21T01:19:51.301Z,22.1988
2023-03-21T01:20:40.031Z,22.1939
2023-03-21T01:21:41.491Z,22.1972
2023-03-21T01:22:42.897Z,22.2029
2023-03-21T01:23:44.349Z,22.2015
2023-03-21T01:24:54.115Z,22.2038
2023-03-21T01:25:47.223Z,22.2091
2023-03-21T01:26:48.666Z,22.1953
2023-03-21T01:27:50.108Z,22.1933
2023-03-21T01:28:51.534Z,22.1980
2023-03-21T01:29:52.991Z,22.2019
2023-03-21T01:30:54.415Z,22.2068
2023-03-21T01:31:55.953Z,22.2040
2023-03-21T01:32:57.292Z,22.2091
2023-03-21T01:33:58.734Z,22.2122
2023-03-21T01:35:00.173Z,22.2070
2023-03-21T01:36:12.160Z,22.2130
2023-03-21T01:37:03.081Z,22.2015
2023-03-21T01:38:04.496Z,22.1970
2023-03-21T01:39:05.926Z,22.1820
2023-03-21T01:40:07.370Z,22.1881
2023-03-21T01:41:18.892Z,22.1886
2023-03-21T01:42:10.249Z,22.1931
2023-03-21T01:43:11.681Z,22.1992
2023-03-21T01:44:13.123Z,22.1838
2023-03-21T01:45:14.565Z,22.1914
2023-03-21T01:46:16.040Z,22.1816
2023-03-21T01:47:17.461Z,22.1847
2023-03-21T01:48:18.902Z,22.1801
2023-03-21T01:49:20.305Z,22.1783
2023-03-21T01:50:21.749Z,22.1847
2023-03-21T01:51:23.185Z,22.1953
2023-03-21T01:52:37.195Z,22.1879
2023-03-21T01:53:26.067Z,22.1869
2023-03-21T01:54:27.505Z,22.1805
2023-03-21T01:55:28.940Z,22.1836
2023-03-21T01:56:30.397Z,22.1793
2023-03-21T01:57:40.962Z,22.1764
2023-03-21T01:58:33.330Z,22.1752
2023-03-21T01:59:34.702Z,22.1861
2023-03-21T02:00:36.138Z,22.1877
2023-03-21T02:01:37.576Z,22.1902
2023-03-21T02:02:39.019Z,22.1877
2023-03-21T02:03:40.500Z,22.1853
2023-03-21T02:04:41.900Z,22.1884
2023-03-21T02:05:43.326Z,22.1861
2023-03-21T02:06:44.782Z,22.1758
2023-03-21T02:07:46.200Z,22.1744
2023-03-21T02:08:47.649Z,22.1752
2023-03-21T02:09:49.086Z,22.1824
2023-03-21T02:10:50.696Z,22.1752
2023-03-21T02:11:51.999Z,22.1797
2023-03-21T02:12:53.407Z,22.1752
2023-03-21T02:14:05.670Z,22.1709
2023-03-21T02:14:56.283Z,22.1793
2023-03-21T02:15:57.716Z,22.1820
2023-03-21T02:16:59.219Z,22.1814
2023-03-21T02:18:00.582Z,22.1888
2023-03-21T02:19:02.038Z,22.1756
2023-03-21T02:20:03.468Z,22.1750
2023-03-21T02:21:04.899Z,22.1787
2023-03-21T02:22:06.325Z,22.1701
2023-03-21T02:23:07.773Z,22.1692
2023-03-21T02:24:09.210Z,22.1697
2023-03-21T02:25:21.269Z,22.1653
2023-03-21T02:26:12.089Z,22.1631
2023-03-21T02:27:13.528Z,22.1656
2023-03-21T02:28:14.956Z,22.1670
2023-03-21T02:29:17.736Z,22.1666
2023-03-21T02:30:28.247Z,22.1656
2023-03-21T02:31:19.317Z,22.1690
2023-03-21T02:32:35.018Z,22.1748
2023-03-21T02:33:22.150Z,22.1678
2023-03-21T02:34:23.588Z,22.1701
2023-03-21T02:35:25.025Z,22.1588
2023-03-21T02:36:26.543Z,22.1614
2023-03-21T02:37:36.753Z,22.1695
2023-03-21T02:38:29.380Z,22.1645
2023-03-21T02:39:30.792Z,22.1662
2023-03-21T02:40:32.247Z,22.1664
2023-03-21T02:41:40.133Z,22.1775
2023-03-21T02:42:35.138Z,22.1619
2023-03-21T02:43:36.543Z,22.1623
2023-03-21T02:44:37.994Z,22.1598
2023-03-21T02:45:39.424Z,22.1497
2023-03-21T02:46:45.653Z,22.1450
2023-03-21T02:47:42.333Z,22.1479
2023-03-21T02:48:50.672Z,22.1526
2023-03-21T02:49:45.193Z,22.1584
2023-03-21T02:50:46.622Z,22.1532
2023-03-21T02:51:48.105Z,22.1604
2023-03-21T02:52:49.490Z,22.1567
2023-03-21T02:54:04.574Z,22.1612
2023-03-21T02:54:52.368Z,22.1610
2023-03-21T02:55:53.807Z,22.1522
2023-03-21T02:56:55.380Z,22.1573
2023-03-21T02:57:56.870Z,22.1518
2023-03-21T02:58:58.174Z,22.1522
2023-03-21T03:00:07.524Z,22.1489
2023-03-21T03:01:01.020Z,22.1528
2023-03-21T03:02:02.459Z,22.1610
2023-03-21T03:03:09.869Z,22.1602
2023-03-21T03:04:05.345Z,22.1656
2023-03-21T03:05:18.005Z,22.1590
2023-03-21T03:06:08.225Z,22.1629
2023-03-21T03:07:09.624Z,22.1684
2023-03-21T03:08:11.105Z,22.1643
2023-03-21T03:09:12.511Z,22.1641
2023-03-21T03:10:13.943Z,22.1649
2023-03-21T03:11:15.373Z,22.1656
2023-03-21T03:12:16.827Z,22.1629
2023-03-21T03:13:18.254Z,22.1571
2023-03-21T03:15:21.128Z,22.1508
2023-03-21T03:16:22.570Z,22.1452
2023-03-21T03:17:24.013Z,22.1499
2023-03-21T03:18:25.454Z,22.1464
2023-03-21T03:19:26.885Z,22.1489
2023-03-21T03:20:28.323Z,22.1522
2023-03-21T03:21:29.755Z,22.1553
2023-03-21T03:22:31.197Z,22.1467
2023-03-21T03:23:32.631Z,22.1352
2023-03-21T03:24:34.093Z,22.1352
2023-03-21T03:25:42.605Z,22.1323
2023-03-21T03:26:36.961Z,22.1341
2023-03-21T03:27:38.380Z,22.1388
2023-03-21T03:28:39.840Z,22.1397
2023-03-21T03:29:41.263Z,22.1304
2023-03-21T03:30:54.070Z,22.1341
2023-03-21T03:31:44.206Z,22.1409
2023-03-21T03:32:45.577Z,22.1378
2023-03-21T03:33:47.009Z,22.1337
2023-03-21T03:34:48.451Z,22.1354
2023-03-21T03:36:02.568Z,22.1364
2023-03-21T03:36:51.372Z,22.1411
2023-03-21T03:37:52.746Z,22.1339
2023-03-21T03:38:54.185Z,22.1288
2023-03-21T03:39:55.617Z,22.1415
2023-03-21T03:40:57.061Z,22.1473
2023-03-21T03:42:27.199Z,22.1352
2023-03-21T03:42:59.929Z,22.1438
2023-03-21T03:44:01.363Z,22.1347
2023-03-21T03:45:02.810Z,22.1368
2023-03-21T03:46:04.234Z,22.1134
2023-03-21T03:47:05.691Z,22.1177
2023-03-21T03:48:07.155Z,22.1167
2023-03-21T03:49:08.566Z,22.1187
2023-03-21T03:50:09.983Z,22.1181
2023-03-21T03:51:11.425Z,22.1206
2023-03-21T03:52:12.867Z,22.1232
2023-03-21T03:53:18.358Z,22.1218
2023-03-21T03:54:15.726Z,22.1230
2023-03-21T03:55:17.166Z,22.1280
2023-03-21T03:56:18.597Z,22.1241
2023-03-21T03:57:20.046Z,22.1267
2023-03-21T03:58:24.252Z,22.1286
2023-03-21T03:59:22.902Z,22.1358
2023-03-21T04:00:24.329Z,22.1386
2023-03-21T04:01:25.768Z,22.1374
2023-03-21T04:02:27.289Z,22.1397
2023-03-21T04:03:32.416Z,22.1421
2023-03-21T04:04:30.147Z,22.1442
2023-03-21T04:05:31.513Z,22.1401
2023-03-21T04:06:32.944Z,22.1401
2023-03-21T04:07:34.385Z,22.1284
2023-03-21T04:08:35.854Z,22.1364
2023-03-21T04:09:44.071Z,22.1249
2023-03-21T04:10:39.099Z,22.1308
2023-03-21T04:11:40.122Z,22.1284
2023-03-21T04:12:41.572Z,22.1347
2023-03-21T04:13:43.047Z,22.1214
2023-03-21T04:14:46.976Z,22.1263
2023-03-21T04:15:46.072Z,22.1263
2023-03-21T04:16:47.307Z,22.1204
2023-03-21T04:17:48.719Z,22.1239
2023-03-21T04:18:50.170Z,22.1224
2023-03-21T04:19:55.476Z,22.1189
2023-03-21T04:20:53.031Z,22.1202
2023-03-21T04:21:54.455Z,22.1152
2023-03-21T04:22:55.893Z,22.1208
2023-03-21T04:23:57.323Z,22.1273
2023-03-21T04:25:00.517Z,22.1187
2023-03-21T04:26:00.189Z,22.1191
2023-03-21T04:27:01.642Z,22.1138
2023-03-21T04:28:03.045Z,22.1173
2023-03-21T04:29:04.484Z,22.1142
2023-03-21T04:30:05.911Z,22.1154
2023-03-21T04:31:16.098Z,22.1136
2023-03-21T04:32:08.820Z,22.1132
2023-03-21T04:33:10.218Z,22.1134
2023-03-21T04:34:11.641Z,22.1152
2023-03-21T04:35:13.088Z,22.1144
2023-03-21T04:36:14.546Z,22.1206
2023-03-21T04:37:15.957Z,22.1154
2023-03-21T04:38:17.477Z,22.1218
2023-03-21T04:39:18.918Z,22.1138
2023-03-21T04:40:20.367Z,22.1144
2023-03-21T04:41:21.801Z,22.1193
2023-03-21T04:42:23.210Z,22.1132
2023-03-21T04:43:24.656Z,22.1195
2023-03-21T04:44:26.082Z,22.1171
2023-03-21T04:45:27.527Z,22.1076
2023-03-21T04:46:28.968Z,22.1039
2023-03-21T04:47:30.396Z,22.1002
2023-03-21T04:48:31.831Z,22.0980
2023-03-21T04:49:33.287Z,22.1068
2023-03-21T04:50:34.921Z,22.1043
2023-03-21T04:51:36.140Z,22.1041
2023-03-21T04:52:37.588Z,22.1008
2023-03-21T04:53:39.019Z,22.0978
2023-03-21T04:54:40.450Z,22.0955
2023-03-21T04:55:41.885Z,22.0959
2023-03-21T04:56:43.329Z,22.1045
2023-03-21T04:57:44.772Z,22.0965
2023-03-21T04:58:46.191Z,22.1004
2023-03-21T04:59:47.640Z,22.0957
2023-03-21T05:00:49.090Z,22.0856
2023-03-21T05:01:50.498Z,22.0922
2023-03-21T05:02:51.929Z,22.0844
2023-03-21T05:03:53.382Z,22.0891
2023-03-21T05:04:54.794Z,22.0785
2023-03-21T05:05:56.241Z,22.0817
2023-03-21T05:06:57.664Z,22.0904
2023-03-21T05:07:59.106Z,22.0908
2023-03-21T05:09:00.555Z,22.0902
2023-03-21T05:10:02.776Z,22.0830
2023-03-21T05:11:03.408Z,22.0867
2023-03-21T05:12:04.864Z,22.0906
2023-03-21T05:13:06.299Z,22.0906
2023-03-21T05:14:07.725Z,22.0896
2023-03-21T05:15:09.194Z,22.0910
2023-03-21T05:16:10.604Z,22.0893
2023-03-21T05:17:12.044Z,22.0873
2023-03-21T05:18:13.463Z,22.0916
2023-03-21T05:19:14.903Z,22.0795
2023-03-21T05:20:16.380Z,22.0768
2023-03-21T05:21:17.768Z,22.0832
2023-03-21T05:22:19.213Z,22.0824
2023-03-21T05:23:20.636Z,22.0906
2023-03-21T05:24:22.079Z,22.0916
2023-03-21T05:25:23.513Z,22.0809
2023-03-21T05:26:24.956Z,22.0805
2023-03-21T05:27:26.390Z,22.0875
2023-03-21T05:28:27.825Z,22.0793
2023-03-21T05:29:29.260Z,22.0766
2023-03-21T05:30:30.705Z,22.0875
2023-03-21T05:31:32.143Z,22.0842
2023-03-21T05:32:33.575Z,22.0762
2023-03-21T05:33:35.000Z,22.0741
2023-03-21T05:34:36.442Z,22.0702
2023-03-21T05:35:38.141Z,22.0762
2023-03-21T05:36:39.349Z,22.0795
2023-03-21T05:37:40.753Z,22.0815
2023-03-21T05:38:42.192Z,22.0830
2023-03-21T05:39:43.623Z,22.0795
2023-03-21T05:40:45.061Z,22.0793
2023-03-21T05:41:46.521Z,22.0750
2023-03-21T05:42:47.927Z,22.0635
2023-03-21T05:43:49.370Z,22.0663
2023-03-21T05:44:50.794Z,22.0538
2023-03-21T05:45:52.267Z,22.0661
2023-03-21T05:46:53.683Z,21.8969
2023-03-21T05:47:55.129Z,20.9721
2023-03-21T05:48:56.541Z,19.9841
2023-03-21T05:49:57.971Z,19.2202
2023-03-21T05:50:59.436Z,18.6112
2023-03-21T05:52:00.860Z,18.4703
2023-03-21T05:53:02.314Z,19.1516
2023-03-21T05:54:03.757Z,19.6705
2023-03-21T05:55:05.174Z,20.0310
2023-03-21T05:56:06.614Z,20.2752
2023-03-21T05:57:08.062Z,20.4547
2023-03-21T05:58:09.478Z,20.5969
2023-03-21T05:59:10.919Z,20.7125
2023-03-21T06:00:12.369Z,20.8162
2023-03-21T06:01:13.791Z,20.8970
2023-03-21T06:02:15.311Z,20.9645
2023-03-21T06:03:16.663Z,21.0331
2023-03-21T06:04:18.140Z,21.0902
2023-03-21T06:05:19.531Z,21.1332
2023-03-21T06:06:20.972Z,21.1800
2023-03-21T06:07:22.406Z,21.2207
2023-03-21T06:08:23.833Z,21.2535
2023-03-21T06:09:25.274Z,21.2449
2023-03-21T06:10:26.702Z,21.2796
2023-03-21T06:11:28.166Z,21.3275
2023-03-21T06:12:29.580Z,21.3415
2023-03-21T06:13:31.018Z,21.3577
2023-03-21T06:14:32.459Z,21.3400
2023-03-21T06:15:33.880Z,21.3665
2023-03-21T06:16:35.323Z,21.3606
2023-03-21T06:17:36.754Z,21.3717
2023-03-21T06:18:38.196Z,21.3815
2023-03-21T06:19:39.630Z,21.3924
2023-03-21T06:20:41.056Z,21.4016
2023-03-21T06:21:42.520Z,21.4224
2023-03-21T06:22:43.934Z,21.4271
2023-03-21T06:23:45.376Z,21.4349
2023-03-21T06:24:46.802Z,21.4468
2023-03-21T06:25:48.253Z,21.4700
2023-03-21T06:26:49.683Z,21.4848
2023-03-21T06:27:51.119Z,21.5025
2023-03-21T06:28:52.540Z,21.5230
2023-03-21T06:29:53.987Z,21.5325
2023-03-21T06:30:55.501Z,21.5323
2023-03-21T06:31:56.867Z,21.5321
2023-03-21T06:32:58.327Z,21.5206
2023-03-21T06:33:59.733Z,21.5204
2023-03-21T06:35:01.168Z,21.5134
2023-03-21T06:36:02.621Z,21.5095
2023-03-21T06:37:04.051Z,21.5060
2023-03-21T06:38:05.516Z,21.5085
2023-03-21T06:39:06.917Z,21.5006
2023-03-21T06:40:08.364Z,21.5000
2023-03-21T06:41:09.780Z,21.4986
2023-03-21T06:42:11.233Z,21.4889
2023-03-21T06:43:12.669Z,21.4871
2023-03-21T06:44:14.144Z,21.5019
2023-03-21T06:45:15.542Z,21.5093
2023-03-21T06:46:17.005Z,21.5284
2023-03-21T06:47:18.426Z,21.5350
2023-03-21T06:48:19.954Z,21.5534
2023-03-21T06:49:21.301Z,21.5571
2023-03-21T06:50:22.732Z,21.5481
2023-03-21T06:51:24.169Z,21.5561
2023-03-21T06:52:25.607Z,21.5662
2023-03-21T06:53:27.038Z,21.5879
2023-03-21T06:54:28.475Z,21.5988
2023-03-21T06:55:29.896Z,21.6103
2023-03-21T06:56:31.337Z,21.6237
2023-03-21T06:57:32.777Z,21.6448
2023-03-21T06:58:34.224Z,21.6531
2023-03-21T06:59:35.641Z,21.6679
2023-03-21T07:00:37.121Z,21.6746
2023-03-21T07:01:38.538Z,21.6876
2023-03-21T07:02:40.040Z,21.6948
2023-03-21T07:03:41.397Z,21.7015
2023-03-21T07:04:42.836Z,21.7135
2023-03-21T07:05:44.262Z,21.7274
2023-03-21T07:06:45.729Z,21.7330
2023-03-21T07:07:47.143Z,21.7379
2023-03-21T07:08:48.585Z,21.6635
2023-03-21T07:09:50.018Z,21.6549
2023-03-21T07:10:51.451Z,21.6993
2023-03-21T07:11:52.903Z,21.7365
2023-03-21T07:12:54.339Z,21.7523
2023-03-21T07:13:55.780Z,21.7695
2023-03-21T07:14:57.210Z,21.7829
2023-03-21T07:15:58.660Z,21.7973
2023-03-21T07:17:00.185Z,21.8086
2023-03-21T07:18:01.527Z,21.8145
2023-03-21T07:19:02.974Z,21.8223
2023-03-21T07:20:04.413Z,21.8244
2023-03-21T07:21:05.856Z,21.8344
2023-03-21T07:22:07.322Z,21.8355
2023-03-21T07:23:08.741Z,21.8443
2023-03-21T07:24:10.170Z,21.8404
2023-03-21T07:25:11.687Z,21.8494
2023-03-21T07:26:13.069Z,21.8548
2023-03-21T07:27:14.508Z,21.8632
2023-03-21T07:28:15.923Z,21.8615
2023-03-21T07:29:17.387Z,21.8681
2023-03-21T07:30:18.810Z,21.8767
2023-03-21T07:31:20.277Z,21.8472
2023-03-21T07:32:21.683Z,21.8190
2023-03-21T07:33:23.157Z,21.8517
2023-03-21T07:34:24.554Z,21.8685
2023-03-21T07:35:26.021Z,21.9032
2023-03-21T07:36:27.436Z,21.8959
2023-03-21T07:37:28.906Z,21.9191
2023-03-21T07:38:30.318Z,21.9230
2023-03-21T07:39:31.761Z,21.9246
2023-03-21T07:40:33.215Z,21.7821
2023-03-21T07:41:34.641Z,21.7260
2023-03-21T07:42:36.090Z,21.7623
2023-03-21T07:43:39.211Z,21.8295
2023-03-21T17:02:34.837Z,23.0317
2023-03-21T17:03:36.294Z,21.9770
2023-03-21T17:04:37.754Z,21.6697
2023-03-21T17:05:39.145Z,21.6192
2023-03-21T17:06:40.575Z,21.6461
2023-03-21T17:07:42.005Z,21.6853
2023-03-21T17:08:43.439Z,21.7280
2023-03-21T17:09:44.880Z,21.7673
2023-03-21T17:10:46.314Z,21.7909
2023-03-21T17:11:47.739Z,21.8295
2023-03-21T17:12:49.186Z,21.8408
2023-03-21T17:13:50.601Z,21.8659
2023-03-21T17:14:52.038Z,21.8689
2023-03-21T17:15:53.524Z,21.8802
2023-03-21T17:16:54.983Z,21.8954
2023-03-21T17:17:56.341Z,21.9090
2023-03-21T17:18:57.785Z,21.9063
2023-03-21T17:19:59.244Z,21.8770
2023-03-21T17:21:00.667Z,21.9100
2023-03-21T17:22:02.082Z,21.9464
2023-03-21T17:23:03.525Z,21.9550
2023-03-21T17:24:04.964Z,21.9719
2023-03-21T17:25:06.388Z,21.9819
2023-03-21T17:26:07.821Z,21.9758
2023-03-21T17:27:09.262Z,21.9819
2023-03-21T17:28:10.701Z,21.9860
2023-03-21T17:29:12.126Z,21.9782
2023-03-21T17:30:13.626Z,21.9250
2023-03-21T17:31:15.058Z,21.9412
2023-03-21T17:32:16.431Z,21.9466
2023-03-21T17:33:17.880Z,21.9653
2023-03-21T17:34:19.288Z,21.9677
2023-03-21T17:35:20.751Z,21.9667
2023-03-21T17:36:22.142Z,21.9797
2023-03-21T17:37:23.594Z,21.9817
2023-03-21T17:38:25.009Z,22.0068
2023-03-21T17:39:26.442Z,21.9844
2023-03-21T17:40:27.873Z,21.9686
2023-03-21T17:41:29.309Z,22.0012
2023-03-21T17:42:30.737Z,22.0014
2023-03-21T17:43:32.178Z,22.0183
2023-03-21T17:44:33.590Z,22.0175
2023-03-21T17:45:35.027Z,22.0119
2023-03-21T17:46:36.513Z,22.0177
2023-03-21T17:47:37.913Z,22.0189
2023-03-21T17:48:39.333Z,22.0168
2023-03-21T17:49:40.759Z,22.0185
2023-03-21T17:50:42.185Z,22.0212
2023-03-21T17:51:43.632Z,22.0230
2023-03-21T17:52:45.058Z,22.0201
2023-03-21T17:53:46.487Z,22.0277
2023-03-21T17:54:47.951Z,22.0253
2023-03-21T17:55:49.377Z,22.0222
2023-03-21T17:56:50.801Z,22.0269
2023-03-21T17:57:52.239Z,22.0253
2023-03-21T17:58:53.665Z,22.0285
2023-03-21T17:59:55.108Z,22.0230
2023-03-21T18:00:56.546Z,22.0133
2023-03-21T18:01:58.023Z,22.0316
2023-03-21T18:02:59.490Z,22.0195
2023-03-21T18:04:00.889Z,22.0368
2023-03-21T18:05:02.396Z,22.0228
2023-03-21T18:06:03.736Z,22.0082
2023-03-21T18:07:06.919Z,22.0271
2023-03-21T18:08:11.037Z,22.0103
2023-03-21T18:09:08.024Z,22.0201
2023-03-21T18:10:09.467Z,22.0259
2023-03-21T18:11:10.899Z,22.0248
2023-03-21T18:12:12.329Z,22.0267
2023-03-21T18:13:13.763Z,22.0222
2023-03-21T18:14:18.081Z,22.0224
2023-03-21T18:15:18.917Z,22.0269
2023-03-21T18:16:18.112Z,22.0214
2023-03-21T18:17:19.478Z,22.0248
2023-03-21T18:18:20.918Z,22.0170
2023-03-21T18:19:22.344Z,22.0191
2023-03-21T18:20:24.258Z,22.0205
2023-03-21T18:21:26.296Z,22.0306
2023-03-21T18:22:26.648Z,22.0218
2023-03-21T18:23:28.079Z,22.0179
2023-03-21T18:24:29.519Z,22.0162
2023-03-21T18:25:30.934Z,22.0068
2023-03-21T18:26:32.429Z,22.0103
2023-03-21T18:27:35.301Z,22.0242
2023-03-21T18:28:35.228Z,22.0135
2023-03-21T18:31:00.286Z,22.0131
2023-03-21T18:31:39.529Z,22.0027
2023-03-21T18:32:41.015Z,21.9819
2023-03-21T18:33:42.389Z,22.0082
2023-03-21T18:34:43.831Z,22.0257
2023-03-21T18:35:46.374Z,22.0203
2023-03-21T18:36:49.141Z,22.0209
2023-03-21T18:37:48.134Z,22.0343
2023-03-21T18:38:49.538Z,22.0322
2023-03-21T18:39:50.976Z,22.0327
2023-03-21T18:40:52.395Z,22.0300
2023-03-21T18:41:57.762Z,22.0138
2023-03-21T18:44:05.438Z,21.9916
2023-03-21T18:44:58.189Z,21.9998
2023-03-21T18:45:59.571Z,22.0035
2023-03-21T18:47:01.018Z,22.0041
2023-03-21T18:48:02.463Z,22.0057
2023-03-21T18:49:33.941Z,22.0066
2023-03-21T18:50:14.125Z,22.0103
2023-03-21T18:51:06.718Z,22.0045
2023-03-21T18:52:08.175Z,22.0121
2023-03-21T18:53:09.572Z,22.0107
2023-03-21T18:54:11.013Z,22.0070
2023-03-21T18:55:12.441Z,22.0133
2023-03-21T18:56:40.797Z,22.0047
2023-03-21T18:58:16.744Z,22.0092
2023-03-21T18:59:18.171Z,22.0146
2023-03-21T19:00:19.646Z,22.0076
2023-03-21T19:01:21.165Z,22.0049
2023-03-21T19:02:22.633Z,22.0055
2023-03-21T19:03:35.893Z,22.0004
2023-03-21T19:04:30.045Z,22.0055
2023-03-21T19:05:26.836Z,22.0039
2023-03-21T19:06:28.237Z,22.0014
2023-03-21T19:07:29.644Z,22.0057
2023-03-21T19:08:31.120Z,21.9984
2023-03-21T19:09:32.499Z,22.0049
2023-03-21T19:10:33.944Z,22.0049
2023-03-21T19:11:35.395Z,22.0086
2023-03-21T19:12:36.822Z,22.0031
2023-03-21T19:13:38.224Z,22.0016
2023-03-21T19:14:39.662Z,21.9979
2023-03-21T19:15:41.525Z,21.9973
2023-03-21T19:17:08.476Z,21.9973
2023-03-21T19:18:54.519Z,21.9792
2023-03-21T19:19:46.908Z,21.9961
2023-03-21T19:20:48.264Z,21.9961
2023-03-21T19:21:49.692Z,21.9967
2023-03-21T19:22:51.141Z,21.9903
2023-03-21T19:24:25.259Z,22.0103
2023-03-21T19:24:54.003Z,22.0031
2023-03-21T19:25:55.420Z,22.0047
2023-03-21T19:26:56.858Z,22.0006
2023-03-21T19:27:58.300Z,22.0020
2023-03-21T19:28:59.729Z,21.9947
2023-03-21T19:30:13.466Z,21.9868
2023-03-21T19:31:02.590Z,21.9827
2023-03-21T19:32:04.088Z,21.9885
2023-03-21T19:33:05.472Z,21.9825
2023-03-21T19:34:06.889Z,21.9864
2023-03-21T19:35:08.366Z,21.9877
2023-03-21T19:36:20.930Z,21.9838
2023-03-21T19:37:11.240Z,21.9760
2023-03-21T19:38:12.633Z,21.9753
2023-03-21T19:39:14.072Z,21.9673
2023-03-21T19:40:15.511Z,21.9764
2023-03-21T19:41:16.959Z,21.9846
2023-03-21T19:42:18.474Z,21.9811
2023-03-21T19:43:32.270Z,21.9821
2023-03-21T19:44:21.249Z,21.9758
2023-03-21T19:45:22.679Z,21.9755
2023-03-21T19:46:24.113Z,21.9698
2023-03-21T19:47:25.562Z,21.9620
2023-03-21T19:48:27.179Z,21.9486
2023-03-21T19:49:48.535Z,21.9741
2023-03-21T19:51:24.467Z,21.9696
2023-03-21T19:51:31.582Z,21.9725
2023-03-21T19:52:32.731Z,21.9778
2023-03-21T19:53:34.163Z,21.9768
2023-03-21T19:54:35.591Z,21.9803
2023-03-21T19:55:37.030Z,21.9811
2023-03-21T19:56:38.451Z,21.9731
2023-03-21T19:57:39.939Z,21.9735
2023-03-21T19:58:41.330Z,21.9692
2023-03-21T19:59:42.775Z,21.9665
2023-03-21T20:00:44.205Z,21.9825
2023-03-21T20:01:45.998Z,21.9735
2023-03-21T20:02:47.129Z,21.9758
2023-03-21T20:03:48.573Z,21.9834
2023-03-21T20:04:49.950Z,21.9799
2023-03-21T20:05:51.461Z,21.9776
2023-03-21T20:06:52.817Z,21.9797
2023-03-21T20:07:54.265Z,21.9735
2023-03-21T20:09:41.213Z,21.9692
2023-03-21T20:09:57.576Z,21.9622
2023-03-21T20:10:58.562Z,21.9971
2023-03-21T20:12:00.012Z,22.0144
2023-03-21T20:13:01.450Z,22.0131
2023-03-21T20:14:02.898Z,22.0142
2023-03-21T20:15:16.661Z,21.9918
2023-03-21T20:16:05.791Z,21.9959
2023-03-21T20:17:07.239Z,21.9883
2023-03-21T20:18:08.632Z,21.9875
2023-03-21T20:19:10.073Z,21.9860
2023-03-21T20:20:11.508Z,21.9821
2023-03-21T20:21:17.667Z,21.9858
2023-03-21T20:22:24.515Z,21.9887
2023-03-21T20:23:16.093Z,21.9889
2023-03-21T20:24:17.240Z,21.9998
2023-03-21T20:25:18.665Z,22.0000
2023-03-21T20:26:20.098Z,22.0035
2023-03-21T20:27:21.524Z,22.0051
2023-03-21T20:28:27.128Z,21.9998
2023-03-21T20:30:25.841Z,21.9380
2023-03-21T20:31:27.391Z,21.9729
2023-03-21T20:32:28.713Z,21.9971
2023-03-21T20:33:30.146Z,21.9959
2023-03-21T20:34:31.598Z,22.0150
2023-03-21T20:36:23.681Z,22.0222
2023-03-21T20:36:40.442Z,22.0271
2023-03-21T20:37:35.954Z,22.0413
2023-03-21T20:38:37.333Z,22.0322
2023-03-21T20:39:38.753Z,22.0370
2023-03-21T20:40:40.537Z,22.0310
2023-03-21T20:41:41.629Z,22.0285
2023-03-21T20:42:43.078Z,22.0359
2023-03-21T20:44:57.940Z,22.0347
2023-03-21T20:45:47.377Z,22.0337
2023-03-21T20:46:48.902Z,22.0380
2023-03-21T20:47:50.278Z,22.0364
2023-03-21T20:48:51.717Z,22.0310
2023-03-21T20:49:53.126Z,22.0312
2023-03-21T20:50:58.883Z,22.0255
2023-03-21T20:52:49.823Z,22.0287
2023-03-21T20:53:06.957Z,22.0246
2023-03-21T20:53:58.941Z,22.0312
2023-03-21T20:55:00.340Z,22.0244
2023-03-21T20:56:01.757Z,22.0197
2023-03-21T20:57:03.402Z,21.9922
2023-03-21T20:58:26.761Z,21.9460
2023-03-21T20:59:17.398Z,21.9583
2023-03-21T21:00:07.492Z,22.0115
2023-03-21T21:01:08.996Z,21.9690
2023-03-21T21:02:10.362Z,22.0113
2023-03-21T21:03:11.894Z,22.0314
2023-03-21T21:04:15.170Z,22.0341
2023-03-21T21:05:27.456Z,22.0232
2023-03-21T21:06:16.231Z,22.0345
2023-03-21T21:07:17.586Z,22.0351
2023-03-21T21:08:19.000Z,22.0355
2023-03-21T21:09:20.433Z,22.0298
2023-03-21T21:10:22.368Z,22.0218
2023-03-21T21:12:24.688Z,22.0135
2023-03-21T21:13:26.099Z,22.0090
2023-03-21T21:14:27.544Z,22.0049
2023-03-21T21:15:28.974Z,22.0006
2023-03-21T21:16:30.421Z,21.9947
2023-03-21T21:17:54.483Z,21.9926
2023-03-21T21:18:33.229Z,21.9283
2023-03-21T21:19:34.661Z,21.9082
2023-03-21T21:20:36.420Z,21.9388
2023-03-21T21:21:37.522Z,21.9846
2023-03-21T21:22:39.327Z,21.9907
2023-03-21T21:23:40.339Z,21.9895
2023-03-21T21:24:41.752Z,21.9868
2023-03-21T21:25:43.196Z,21.9875
2023-03-21T21:26:44.631Z,21.9774
2023-03-21T21:27:46.034Z,21.9768
2023-03-21T21:28:47.457Z,21.9719
2023-03-21T21:29:48.888Z,21.9595
2023-03-21T21:30:50.458Z,21.9675
2023-03-21T21:31:51.750Z,21.9651
2023-03-21T21:32:53.156Z,21.9643
2023-03-21T21:33:54.605Z,21.9684
2023-03-21T21:34:56.033Z,21.9614
2023-03-21T21:35:57.502Z,21.9554
2023-03-21T21:36:58.917Z,21.9527
2023-03-21T21:38:00.301Z,21.9585
2023-03-21T21:39:01.718Z,21.9550
2023-03-21T21:40:03.155Z,21.9546
2023-03-21T21:41:04.566Z,21.9523
2023-03-21T21:42:05.993Z,21.9427
2023-03-21T21:43:07.420Z,21.9476
2023-03-21T21:44:08.849Z,21.9497
2023-03-21T21:45:10.359Z,21.9445
2023-03-21T21:46:11.742Z,21.9349
2023-03-21T21:47:13.131Z,21.9408
2023-03-21T21:48:14.572Z,21.9451
2023-03-21T21:49:15.976Z,21.9324